sensor_id;sensor_type;location;lat;lon;timestamp;pressure;altitude;pressure_sealevel;temperature;humidity
60832;BME280;46665;51.558;-0.448;2023-04-07T00:01:49;101303.84;;;4.93;100.00
60832;BME280;46665;51.558;-0.448;2023-04-07T00:04:33;101310.44;;;4.97;100.00
60832;BME280;46665;51.558;-0.448;2023-04-07T00:07:16;101314.56;;;4.99;100.00
60832;BME280;46665;51.558;-0.448;2023-04-07T00:10:01;101311.25;;;4.97;100.00
60832;BME280;46665;51.558;-0.448;2023-04-07T00:12:45;101313.47;;;5.00;100.00
60832;BME280;46665;51.558;-0.448;2023-04-07T00:15:29;101313.59;;;4.94;100.00
60832;BME280;46665;51.558;-0.448;2023-04-07T00:18:13;101310.03;;;4.93;100.00
60832;BME280;46665;51.558;-0.448;2023-04-07T00:20:57;101320.25;;;4.91;100.00
60832;BME280;46665;51.558;-0.448;2023-04-07T00:23:41;101312.03;;;4.86;100.00
60832;BME280;46665;51.558;-0.448;2023-04-07T00:26:25;101315.16;;;4.83;100.00
60832;BME280;46665;51.558;-0.448;2023-04-07T00:29:13;101319.97;;;4.81;100.00
60832;BME280;46665;51.558;-0.448;2023-04-07T00:31:58;101329.75;;;4.75;100.00
60832;BME280;46665;51.558;-0.448;2023-04-07T00:34:42;101327.06;;;4.75;100.00
60832;BME280;46665;51.558;-0.448;2023-04-07T00:37:26;101323.09;;;4.78;100.00
60832;BME280;46665;51.558;-0.448;2023-04-07T00:40:10;101324.75;;;4.79;100.00
60832;BME280;46665;51.558;-0.448;2023-04-07T00:42:55;101329.34;;;4.78;100.00
60832;BME280;46665;51.558;-0.448;2023-04-07T00:45:39;101335.31;;;4.81;100.00
60832;BME280;46665;51.558;-0.448;2023-04-07T00:48:23;101330.75;;;4.81;100.00
60832;BME280;46665;51.558;-0.448;2023-04-07T00:51:07;101337.78;;;4.82;100.00
60832;BME280;46665;51.558;-0.448;2023-04-07T00:53:51;101335.69;;;4.84;100.00
60832;BME280;46665;51.558;-0.448;2023-04-07T00:56:35;101337.34;;;4.85;100.00
60832;BME280;46665;51.558;-0.448;2023-04-07T00:59:20;101340.41;;;4.89;100.00
60832;BME280;46665;51.558;-0.448;2023-04-07T01:02:10;101330.44;;;4.89;100.00
60832;BME280;46665;51.558;-0.448;2023-04-07T01:05:15;101333.34;;;4.88;100.00
60832;BME280;46665;51.558;-0.448;2023-04-07T01:11:07;101333.81;;;4.85;100.00
60832;BME280;46665;51.558;-0.448;2023-04-07T01:13:52;101330.50;;;4.83;100.00
60832;BME280;46665;51.558;-0.448;2023-04-07T01:16:45;101337.78;;;4.82;100.00
60832;BME280;46665;51.558;-0.448;2023-04-07T01:20:07;101344.25;;;4.81;100.00
60832;BME280;46665;51.558;-0.448;2023-04-07T01:22:56;101333.28;;;4.76;100.00
60832;BME280;46665;51.558;-0.448;2023-04-07T01:28:45;101332.03;;;4.78;100.00
60832;BME280;46665;51.558;-0.448;2023-04-07T01:31:33;101334.13;;;4.76;100.00
60832;BME280;46665;51.558;-0.448;2023-04-07T01:34:21;101339.72;;;4.75;100.00
60832;BME280;46665;51.558;-0.448;2023-04-07T01:37:07;101333.28;;;4.76;100.00
60832;BME280;46665;51.558;-0.448;2023-04-07T01:39:52;101343.25;;;4.75;100.00
60832;BME280;46665;51.558;-0.448;2023-04-07T01:42:37;101342.44;;;4.75;100.00
60832;BME280;46665;51.558;-0.448;2023-04-07T01:45:23;101341.38;;;4.76;100.00
60832;BME280;46665;51.558;-0.448;2023-04-07T01:48:09;101342.28;;;4.70;100.00
60832;BME280;46665;51.558;-0.448;2023-04-07T01:50:54;101342.88;;;4.72;100.00
60832;BME280;46665;51.558;-0.448;2023-04-07T01:53:38;101343.03;;;4.77;100.00
60832;BME280;46665;51.558;-0.448;2023-04-07T01:56:23;101338.91;;;4.74;100.00
60832;BME280;46665;51.558;-0.448;2023-04-07T01:59:07;101341.63;;;4.74;100.00
60832;BME280;46665;51.558;-0.448;2023-04-07T02:01:50;101343.69;;;4.72;100.00
60832;BME280;46665;51.558;-0.448;2023-04-07T02:04:42;101346.03;;;4.69;100.00
60832;BME280;46665;51.558;-0.448;2023-04-07T02:07:38;101344.63;;;4.66;100.00
60832;BME280;46665;51.558;-0.448;2023-04-07T02:10:26;101352.16;;;4.57;100.00
60832;BME280;46665;51.558;-0.448;2023-04-07T02:13:15;101355.75;;;4.51;100.00
60832;BME280;46665;51.558;-0.448;2023-04-07T02:16:00;101363.25;;;4.49;100.00
60832;BME280;46665;51.558;-0.448;2023-04-07T02:18:45;101365.31;;;4.47;100.00
60832;BME280;46665;51.558;-0.448;2023-04-07T02:21:32;101364.16;;;4.43;100.00
60832;BME280;46665;51.558;-0.448;2023-04-07T02:24:20;101368.25;;;4.46;100.00
60832;BME280;46665;51.558;-0.448;2023-04-07T02:27:07;101362.03;;;4.45;100.00
60832;BME280;46665;51.558;-0.448;2023-04-07T02:29:51;101367.66;;;4.44;100.00
60832;BME280;46665;51.558;-0.448;2023-04-07T02:32:35;101367.25;;;4.40;100.00
60832;BME280;46665;51.558;-0.448;2023-04-07T02:35:19;101365.78;;;4.44;100.00
60832;BME280;46665;51.558;-0.448;2023-04-07T02:38:03;101365.16;;;4.42;100.00
60832;BME280;46665;51.558;-0.448;2023-04-07T02:40:47;101380.31;;;4.43;100.00
60832;BME280;46665;51.558;-0.448;2023-04-07T02:43:31;101367.88;;;4.42;100.00
60832;BME280;46665;51.558;-0.448;2023-04-07T02:46:15;101368.94;;;4.41;100.00
60832;BME280;46665;51.558;-0.448;2023-04-07T02:48:59;101372.59;;;4.47;100.00
60832;BME280;46665;51.558;-0.448;2023-04-07T02:51:44;101377.16;;;4.46;100.00
60832;BME280;46665;51.558;-0.448;2023-04-07T02:54:29;101371.94;;;4.51;100.00
60832;BME280;46665;51.558;-0.448;2023-04-07T02:57:13;101367.16;;;4.53;100.00
60832;BME280;46665;51.558;-0.448;2023-04-07T02:59:57;101358.81;;;4.55;100.00
60832;BME280;46665;51.558;-0.448;2023-04-07T03:02:44;101355.47;;;4.60;100.00
60832;BME280;46665;51.558;-0.448;2023-04-07T03:05:28;101365.19;;;4.61;100.00
60832;BME280;46665;51.558;-0.448;2023-04-07T03:08:12;101364.75;;;4.64;100.00
60832;BME280;46665;51.558;-0.448;2023-04-07T03:10:56;101366.41;;;4.65;100.00
60832;BME280;46665;51.558;-0.448;2023-04-07T03:13:40;101365.13;;;4.67;100.00
60832;BME280;46665;51.558;-0.448;2023-04-07T03:16:24;101369.09;;;4.65;100.00
60832;BME280;46665;51.558;-0.448;2023-04-07T03:19:09;101373.66;;;4.64;100.00
60832;BME280;46665;51.558;-0.448;2023-04-07T03:21:53;101372.59;;;4.65;100.00
60832;BME280;46665;51.558;-0.448;2023-04-07T03:24:37;101363.69;;;4.65;100.00
60832;BME280;46665;51.558;-0.448;2023-04-07T03:27:23;101366.41;;;4.65;100.00
60832;BME280;46665;51.558;-0.448;2023-04-07T03:30:07;101370.97;;;4.64;100.00
60832;BME280;46665;51.558;-0.448;2023-04-07T03:32:51;101371.78;;;4.65;100.00
60832;BME280;46665;51.558;-0.448;2023-04-07T03:35:35;101365.34;;;4.66;100.00
60832;BME280;46665;51.558;-0.448;2023-04-07T03:38:19;101365.78;;;4.63;100.00
60832;BME280;46665;51.558;-0.448;2023-04-07T03:41:04;101364.00;;;4.56;100.00
60832;BME280;46665;51.558;-0.448;2023-04-07T03:43:48;101369.16;;;4.58;100.00
60832;BME280;46665;51.558;-0.448;2023-04-07T03:46:32;101366.53;;;4.51;100.00
60832;BME280;46665;51.558;-0.448;2023-04-07T03:49:16;101361.00;;;4.46;100.00
60832;BME280;46665;51.558;-0.448;2023-04-07T03:52:00;101363.09;;;4.44;100.00
60832;BME280;46665;51.558;-0.448;2023-04-07T03:54:44;101366.00;;;4.43;100.00
60832;BME280;46665;51.558;-0.448;2023-04-07T03:57:28;101361.88;;;4.40;100.00
60832;BME280;46665;51.558;-0.448;2023-04-07T04:00:12;101358.81;;;4.37;100.00
60832;BME280;46665;51.558;-0.448;2023-04-07T04:02:56;101358.44;;;4.33;100.00
60832;BME280;46665;51.558;-0.448;2023-04-07T04:05:40;101368.38;;;4.32;100.00
60832;BME280;46665;51.558;-0.448;2023-04-07T04:08:25;101365.91;;;4.31;100.00
60832;BME280;46665;51.558;-0.448;2023-04-07T04:11:10;101370.75;;;4.22;100.00
60832;BME280;46665;51.558;-0.448;2023-04-07T04:13:54;101365.84;;;4.12;100.00
60832;BME280;46665;51.558;-0.448;2023-04-07T04:16:38;101371.47;;;4.11;100.00
60832;BME280;46665;51.558;-0.448;2023-04-07T04:19:22;101378.56;;;4.05;100.00
60832;BME280;46665;51.558;-0.448;2023-04-07T04:22:06;101379.91;;;3.89;100.00
60832;BME280;46665;51.558;-0.448;2023-04-07T04:24:50;101381.19;;;3.87;100.00
60832;BME280;46665;51.558;-0.448;2023-04-07T04:27:34;101381.19;;;3.87;100.00
60832;BME280;46665;51.558;-0.448;2023-04-07T04:30:19;101385.31;;;3.89;100.00
60832;BME280;46665;51.558;-0.448;2023-04-07T04:33:03;101388.84;;;3.90;100.00
60832;BME280;46665;51.558;-0.448;2023-04-07T04:35:47;101394.97;;;3.97;100.00
60832;BME280;46665;51.558;-0.448;2023-04-07T04:38:31;101394.78;;;3.99;100.00
60832;BME280;46665;51.558;-0.448;2023-04-07T04:41:16;101398.25;;;4.06;100.00
60832;BME280;46665;51.558;-0.448;2023-04-07T04:43:59;101408.13;;;4.12;100.00
60832;BME280;46665;51.558;-0.448;2023-04-07T04:46:43;101407.09;;;4.13;100.00
60832;BME280;46665;51.558;-0.448;2023-04-07T04:49:28;101415.56;;;4.17;100.00
60832;BME280;46665;51.558;-0.448;2023-04-07T04:52:12;101412.66;;;4.18;100.00
60832;BME280;46665;51.558;-0.448;2023-04-07T04:54:56;101415.09;;;4.20;100.00
60832;BME280;46665;51.558;-0.448;2023-04-07T04:57:40;101416.94;;;4.26;100.00
60832;BME280;46665;51.558;-0.448;2023-04-07T05:00:24;101414.25;;;4.26;100.00
60832;BME280;46665;51.558;-0.448;2023-04-07T05:03:08;101414.47;;;4.24;100.00
60832;BME280;46665;51.558;-0.448;2023-04-07T05:05:52;101424.19;;;4.25;100.00
60832;BME280;46665;51.558;-0.448;2023-04-07T05:08:36;101419.47;;;4.21;100.00
60832;BME280;46665;51.558;-0.448;2023-04-07T05:11:20;101422.00;;;4.16;100.00
60832;BME280;46665;51.558;-0.448;2023-04-07T05:14:04;101426.16;;;4.11;100.00
60832;BME280;46665;51.558;-0.448;2023-04-07T05:16:48;101432.81;;;4.09;100.00
60832;BME280;46665;51.558;-0.448;2023-04-07T05:19:32;101433.91;;;4.01;100.00
60832;BME280;46665;51.558;-0.448;2023-04-07T05:22:16;101445.72;;;4.00;100.00
60832;BME280;46665;51.558;-0.448;2023-04-07T05:25:00;101439.31;;;3.95;100.00
60832;BME280;46665;51.558;-0.448;2023-04-07T05:27:44;101444.34;;;3.91;100.00
60832;BME280;46665;51.558;-0.448;2023-04-07T05:30:28;101449.38;;;3.81;100.00
60832;BME280;46665;51.558;-0.448;2023-04-07T05:33:12;101446.50;;;3.76;100.00
60832;BME280;46665;51.558;-0.448;2023-04-07T05:35:56;101440.50;;;3.74;100.00
60832;BME280;46665;51.558;-0.448;2023-04-07T05:38:41;101439.06;;;3.71;100.00
60832;BME280;46665;51.558;-0.448;2023-04-07T05:41:24;101445.16;;;3.60;100.00
60832;BME280;46665;51.558;-0.448;2023-04-07T05:44:08;101454.44;;;3.64;100.00
60832;BME280;46665;51.558;-0.448;2023-04-07T05:46:52;101455.47;;;3.63;100.00
60832;BME280;46665;51.558;-0.448;2023-04-07T05:49:36;101450.47;;;3.66;100.00
60832;BME280;46665;51.558;-0.448;2023-04-07T05:52:20;101460.00;;;3.69;100.00
60832;BME280;46665;51.558;-0.448;2023-04-07T05:55:05;101458.09;;;3.76;100.00
60832;BME280;46665;51.558;-0.448;2023-04-07T05:57:49;101465.91;;;3.84;100.00
60832;BME280;46665;51.558;-0.448;2023-04-07T06:00:33;101463.34;;;3.96;100.00
60832;BME280;46665;51.558;-0.448;2023-04-07T06:03:17;101464.53;;;4.07;100.00
60832;BME280;46665;51.558;-0.448;2023-04-07T06:06:01;101455.97;;;4.17;100.00
60832;BME280;46665;51.558;-0.448;2023-04-07T06:08:45;101460.47;;;4.23;100.00
60832;BME280;46665;51.558;-0.448;2023-04-07T06:11:29;101461.47;;;4.28;100.00
60832;BME280;46665;51.558;-0.448;2023-04-07T06:14:13;101466.22;;;4.33;100.00
60832;BME280;46665;51.558;-0.448;2023-04-07T06:22:21;101451.69;;;4.34;100.00
60832;BME280;46665;51.558;-0.448;2023-04-07T06:25:05;101455.97;;;4.42;100.00
60832;BME280;46665;51.558;-0.448;2023-04-07T06:27:48;101461.03;;;4.56;100.00
60832;BME280;46665;51.558;-0.448;2023-04-07T06:30:34;101467.94;;;4.71;100.00
60832;BME280;46665;51.558;-0.448;2023-04-07T06:33:19;101467.28;;;4.75;100.00
60832;BME280;46665;51.558;-0.448;2023-04-07T06:36:08;101473.91;;;4.98;100.00
60832;BME280;46665;51.558;-0.448;2023-04-07T06:38:52;101486.56;;;5.16;100.00
60832;BME280;46665;51.558;-0.448;2023-04-07T06:41:36;101485.69;;;5.22;100.00
60832;BME280;46665;51.558;-0.448;2023-04-07T06:44:21;101478.22;;;5.24;100.00
60832;BME280;46665;51.558;-0.448;2023-04-07T06:47:05;101492.56;;;5.36;100.00
60832;BME280;46665;51.558;-0.448;2023-04-07T06:49:49;101505.63;;;5.39;100.00
60832;BME280;46665;51.558;-0.448;2023-04-07T06:52:33;101503.97;;;5.38;100.00
60832;BME280;46665;51.558;-0.448;2023-04-07T06:55:19;101492.72;;;5.41;100.00
60832;BME280;46665;51.558;-0.448;2023-04-07T06:58:04;101471.28;;;5.28;100.00
60832;BME280;46665;51.558;-0.448;2023-04-07T07:00:49;101475.34;;;5.37;100.00
60832;BME280;46665;51.558;-0.448;2023-04-07T07:03:33;101482.78;;;5.42;100.00
60832;BME280;46665;51.558;-0.448;2023-04-07T07:06:17;101498.56;;;5.57;100.00
60832;BME280;46665;51.558;-0.448;2023-04-07T07:09:01;101521.44;;;5.73;100.00
60832;BME280;46665;51.558;-0.448;2023-04-07T07:11:46;101526.72;;;5.79;100.00
60832;BME280;46665;51.558;-0.448;2023-04-07T07:14:30;101536.84;;;5.84;100.00
60832;BME280;46665;51.558;-0.448;2023-04-07T07:17:14;101531.38;;;5.91;100.00
60832;BME280;46665;51.558;-0.448;2023-04-07T07:19:59;101533.56;;;6.00;100.00
60832;BME280;46665;51.558;-0.448;2023-04-07T07:22:43;101504.81;;;5.88;100.00
60832;BME280;46665;51.558;-0.448;2023-04-07T07:25:28;101511.97;;;6.00;100.00
60832;BME280;46665;51.558;-0.448;2023-04-07T07:36:06;101524.16;;;6.33;100.00
60832;BME280;46665;51.558;-0.448;2023-04-07T07:38:51;101550.88;;;6.53;100.00
60832;BME280;46665;51.558;-0.448;2023-04-07T07:44:12;101528.75;;;6.44;100.00
60832;BME280;46665;51.558;-0.448;2023-04-07T07:46:56;101542.88;;;6.58;100.00
60832;BME280;46665;51.558;-0.448;2023-04-07T07:49:47;101529.75;;;6.62;100.00
60832;BME280;46665;51.558;-0.448;2023-04-07T07:52:33;101527.72;;;6.57;100.00
60832;BME280;46665;51.558;-0.448;2023-04-07T07:55:19;101557.75;;;6.79;100.00
60832;BME280;46665;51.558;-0.448;2023-04-07T07:58:04;101536.09;;;6.67;100.00
60832;BME280;46665;51.558;-0.448;2023-04-07T08:00:48;101530.22;;;6.70;100.00
60832;BME280;46665;51.558;-0.448;2023-04-07T08:03:32;101551.63;;;6.95;100.00
60832;BME280;46665;51.558;-0.448;2023-04-07T08:06:16;101550.22;;;6.93;100.00
60832;BME280;46665;51.558;-0.448;2023-04-07T08:09:01;101541.19;;;6.99;100.00
60832;BME280;46665;51.558;-0.448;2023-04-07T08:11:48;101555.75;;;7.10;100.00
60832;BME280;46665;51.558;-0.448;2023-04-07T08:14:32;101535.03;;;7.04;100.00
60832;BME280;46665;51.558;-0.448;2023-04-07T08:17:16;101540.69;;;7.14;100.00
60832;BME280;46665;51.558;-0.448;2023-04-07T08:20:01;101541.88;;;7.18;100.00
60832;BME280;46665;51.558;-0.448;2023-04-07T08:22:49;101552.81;;;7.35;100.00
60832;BME280;46665;51.558;-0.448;2023-04-07T08:25:37;101545.72;;;7.34;100.00
60832;BME280;46665;51.558;-0.448;2023-04-07T08:28:24;101548.44;;;7.34;100.00
60832;BME280;46665;51.558;-0.448;2023-04-07T08:31:09;101543.72;;;7.41;100.00
60832;BME280;46665;51.558;-0.448;2023-04-07T08:33:52;101576.44;;;7.63;97.79
60832;BME280;46665;51.558;-0.448;2023-04-07T08:36:40;101578.06;;;7.64;97.33
60832;BME280;46665;51.558;-0.448;2023-04-07T08:39:25;101570.06;;;7.69;99.15
60832;BME280;46665;51.558;-0.448;2023-04-07T08:42:09;101576.16;;;7.76;100.00
60832;BME280;46665;51.558;-0.448;2023-04-07T08:44:56;101577.09;;;7.82;98.82
60832;BME280;46665;51.558;-0.448;2023-04-07T08:47:45;101581.66;;;7.93;96.64
60832;BME280;46665;51.558;-0.448;2023-04-07T08:50:30;101579.06;;;7.98;99.67
60832;BME280;46665;51.558;-0.448;2023-04-07T08:53:17;101580.78;;;8.04;97.38
60832;BME280;46665;51.558;-0.448;2023-04-07T08:56:06;101579.38;;;8.02;93.54
60832;BME280;46665;51.558;-0.448;2023-04-07T08:58:51;101584.09;;;8.07;95.24
60832;BME280;46665;51.558;-0.448;2023-04-07T09:01:36;101589.13;;;8.15;93.57
60832;BME280;46665;51.558;-0.448;2023-04-07T09:04:21;101581.56;;;8.17;95.21
60832;BME280;46665;51.558;-0.448;2023-04-07T09:07:06;101577.22;;;8.16;94.36
60832;BME280;46665;51.558;-0.448;2023-04-07T09:09:50;101576.84;;;8.24;94.80
60832;BME280;46665;51.558;-0.448;2023-04-07T09:12:35;101585.47;;;8.38;91.74
60832;BME280;46665;51.558;-0.448;2023-04-07T09:15:20;101579.84;;;8.39;90.91
60832;BME280;46665;51.558;-0.448;2023-04-07T09:18:04;101597.63;;;8.47;90.07
60832;BME280;46665;51.558;-0.448;2023-04-07T09:23:41;101588.13;;;8.61;90.67
60832;BME280;46665;51.558;-0.448;2023-04-07T09:26:27;101603.75;;;8.71;89.79
60832;BME280;46665;51.558;-0.448;2023-04-07T09:31:49;101586.16;;;8.74;91.20
60832;BME280;46665;51.558;-0.448;2023-04-07T09:34:36;101591.50;;;8.85;92.00
60832;BME280;46665;51.558;-0.448;2023-04-07T09:37:21;101589.69;;;8.91;88.37
60832;BME280;46665;51.558;-0.448;2023-04-07T09:40:00;101591.66;;;8.96;87.89
60832;BME280;46665;51.558;-0.448;2023-04-07T09:42:45;101560.75;;;8.80;85.34
60832;BME280;46665;51.558;-0.448;2023-04-07T09:45:31;101598.09;;;9.06;89.36
60832;BME280;46665;51.558;-0.448;2023-04-07T09:48:20;101591.75;;;9.18;88.64
60832;BME280;46665;51.558;-0.448;2023-04-07T09:51:06;101595.69;;;9.27;85.27
60832;BME280;46665;51.558;-0.448;2023-04-07T09:53:51;101599.38;;;9.21;83.13
60832;BME280;46665;51.558;-0.448;2023-04-07T09:56:35;101585.31;;;9.24;86.19
60832;BME280;46665;51.558;-0.448;2023-04-07T09:59:19;101581.03;;;9.28;86.81
60832;BME280;46665;51.558;-0.448;2023-04-07T10:02:04;101590.88;;;9.34;85.55
60832;BME280;46665;51.558;-0.448;2023-04-07T10:04:49;101587.19;;;9.40;87.91
60832;BME280;46665;51.558;-0.448;2023-04-07T10:07:34;101586.97;;;9.47;87.41
60832;BME280;46665;51.558;-0.448;2023-04-07T10:10:18;101590.84;;;9.51;87.58
60832;BME280;46665;51.558;-0.448;2023-04-07T10:13:04;101589.88;;;9.57;85.36
60832;BME280;46665;51.558;-0.448;2023-04-07T10:15:48;101593.72;;;9.61;83.79
60832;BME280;46665;51.558;-0.448;2023-04-07T10:18:35;101589.44;;;9.65;86.07
60832;BME280;46665;51.558;-0.448;2023-04-07T10:21:20;101584.63;;;9.72;85.13
60832;BME280;46665;51.558;-0.448;2023-04-07T10:27:17;101595.50;;;9.94;80.70
60832;BME280;46665;51.558;-0.448;2023-04-07T10:30:03;101585.19;;;9.96;82.92
60832;BME280;46665;51.558;-0.448;2023-04-07T10:32:51;101586.06;;;10.02;83.90
60832;BME280;46665;51.558;-0.448;2023-04-07T10:36:03;101598.72;;;10.13;81.44
60832;BME280;46665;51.558;-0.448;2023-04-07T10:41:50;101579.34;;;10.32;78.44
60832;BME280;46665;51.558;-0.448;2023-04-07T10:47:21;101596.06;;;10.46;77.10
60832;BME280;46665;51.558;-0.448;2023-04-07T10:53:09;101585.31;;;10.56;76.52
60832;BME280;46665;51.558;-0.448;2023-04-07T10:55:54;101590.81;;;10.61;76.05
60832;BME280;46665;51.558;-0.448;2023-04-07T10:58:39;101589.28;;;10.75;75.63
60832;BME280;46665;51.558;-0.448;2023-04-07T11:01:23;101577.13;;;10.88;72.30
60832;BME280;46665;51.558;-0.448;2023-04-07T11:04:07;101585.38;;;10.98;72.95
60832;BME280;46665;51.558;-0.448;2023-04-07T11:06:51;101587.06;;;11.04;70.45
60832;BME280;46665;51.558;-0.448;2023-04-07T11:09:35;101587.66;;;11.06;72.10
60832;BME280;46665;51.558;-0.448;2023-04-07T11:12:23;101590.19;;;11.23;71.99
60832;BME280;46665;51.558;-0.448;2023-04-07T11:15:20;101582.88;;;11.29;71.54
60832;BME280;46665;51.558;-0.448;2023-04-07T11:18:15;101578.22;;;11.24;71.44
60832;BME280;46665;51.558;-0.448;2023-04-07T11:21:00;101582.38;;;11.32;68.89
60832;BME280;46665;51.558;-0.448;2023-04-07T11:23:46;101584.28;;;11.37;65.60
60832;BME280;46665;51.558;-0.448;2023-04-07T11:26:39;101577.25;;;11.46;70.48
60832;BME280;46665;51.558;-0.448;2023-04-07T11:29:28;101580.31;;;11.55;69.17
60832;BME280;46665;51.558;-0.448;2023-04-07T11:32:13;101578.69;;;11.59;69.56
60832;BME280;46665;51.558;-0.448;2023-04-07T11:34:57;101579.75;;;11.53;66.98
60832;BME280;46665;51.558;-0.448;2023-04-07T11:37:41;101581.63;;;11.47;67.02
60832;BME280;46665;51.558;-0.448;2023-04-07T11:40:35;101589.56;;;11.54;63.83
60832;BME280;46665;51.558;-0.448;2023-04-07T11:43:24;101582.66;;;11.36;63.42
60832;BME280;46665;51.558;-0.448;2023-04-07T11:46:16;101577.25;;;11.46;66.51
60832;BME280;46665;51.558;-0.448;2023-04-07T11:49:11;101580.38;;;11.70;67.42
60832;BME280;46665;51.558;-0.448;2023-04-07T11:52:01;101587.84;;;11.90;66.09
60832;BME280;46665;51.558;-0.448;2023-04-07T11:54:46;101589.56;;;12.11;64.04
60832;BME280;46665;51.558;-0.448;2023-04-07T11:57:30;101585.19;;;12.00;61.79
60832;BME280;46665;51.558;-0.448;2023-04-07T12:00:14;101593.47;;;11.73;62.71
60832;BME280;46665;51.558;-0.448;2023-04-07T12:03:08;101593.06;;;11.49;62.88
60832;BME280;46665;51.558;-0.448;2023-04-07T12:05:53;101593.50;;;11.31;63.29
60832;BME280;46665;51.558;-0.448;2023-04-07T12:08:38;101598.50;;;11.44;63.89
60832;BME280;46665;51.558;-0.448;2023-04-07T12:11:23;101594.19;;;11.53;62.66
60832;BME280;46665;51.558;-0.448;2023-04-07T12:14:08;101586.69;;;11.76;61.10
60832;BME280;46665;51.558;-0.448;2023-04-07T12:16:52;101583.53;;;11.99;64.90
60832;BME280;46665;51.558;-0.448;2023-04-07T12:19:38;101575.13;;;12.16;63.01
60832;BME280;46665;51.558;-0.448;2023-04-07T12:22:23;101587.69;;;12.22;64.37
60832;BME280;46665;51.558;-0.448;2023-04-07T12:25:07;101588.78;;;12.21;60.27
60832;BME280;46665;51.558;-0.448;2023-04-07T12:27:51;101586.59;;;12.13;60.95
60832;BME280;46665;51.558;-0.448;2023-04-07T12:30:35;101596.91;;;12.01;60.47
60832;BME280;46665;51.558;-0.448;2023-04-07T12:33:19;101587.41;;;12.13;62.70
60832;BME280;46665;51.558;-0.448;2023-04-07T12:36:04;101591.50;;;12.21;62.61
60832;BME280;46665;51.558;-0.448;2023-04-07T12:38:48;101581.16;;;12.28;61.10
60832;BME280;46665;51.558;-0.448;2023-04-07T12:41:32;101595.41;;;12.51;59.76
60832;BME280;46665;51.558;-0.448;2023-04-07T12:44:18;101579.81;;;12.46;59.42
60832;BME280;46665;51.558;-0.448;2023-04-07T12:47:02;101590.19;;;12.44;60.61
60832;BME280;46665;51.558;-0.448;2023-04-07T12:49:46;101587.19;;;12.41;61.74
60832;BME280;46665;51.558;-0.448;2023-04-07T12:52:30;101583.34;;;12.36;61.82
60832;BME280;46665;51.558;-0.448;2023-04-07T12:55:15;101582.00;;;12.49;62.04
60832;BME280;46665;51.558;-0.448;2023-04-07T12:57:59;101588.84;;;12.57;60.07
60832;BME280;46665;51.558;-0.448;2023-04-07T13:00:44;101588.28;;;12.55;56.60
60832;BME280;46665;51.558;-0.448;2023-04-07T13:03:29;101585.53;;;12.45;54.85
60832;BME280;46665;51.558;-0.448;2023-04-07T13:06:13;101588.81;;;12.36;55.76
60832;BME280;46665;51.558;-0.448;2023-04-07T13:08:57;101582.53;;;12.31;55.33
60832;BME280;46665;51.558;-0.448;2023-04-07T13:11:41;101581.44;;;12.42;55.59
60832;BME280;46665;51.558;-0.448;2023-04-07T13:14:25;101582.03;;;12.60;56.94
60832;BME280;46665;51.558;-0.448;2023-04-07T13:17:09;101577.38;;;12.75;54.97
60832;BME280;46665;51.558;-0.448;2023-04-07T13:19:53;101591.88;;;12.91;51.44
60832;BME280;46665;51.558;-0.448;2023-04-07T13:22:37;101585.56;;;13.11;51.07
60832;BME280;46665;51.558;-0.448;2023-04-07T13:25:21;101594.59;;;13.27;50.51
60832;BME280;46665;51.558;-0.448;2023-04-07T13:28:05;101590.19;;;13.26;51.79
60832;BME280;46665;51.558;-0.448;2023-04-07T13:30:49;101598.97;;;13.28;52.81
60832;BME280;46665;51.558;-0.448;2023-04-07T13:33:34;101588.03;;;13.28;49.16
60832;BME280;46665;51.558;-0.448;2023-04-07T13:36:18;101583.91;;;13.36;51.79
60832;BME280;46665;51.558;-0.448;2023-04-07T13:39:02;101586.59;;;13.51;49.34
60832;BME280;46665;51.558;-0.448;2023-04-07T13:41:46;101588.25;;;13.57;46.35
60832;BME280;46665;51.558;-0.448;2023-04-07T13:44:30;101575.09;;;13.59;46.35
60832;BME280;46665;51.558;-0.448;2023-04-07T13:47:14;101591.19;;;13.71;43.68
60832;BME280;46665;51.558;-0.448;2023-04-07T13:50:02;101582.91;;;13.86;43.60
60832;BME280;46665;51.558;-0.448;2023-04-07T13:52:46;101578.22;;;13.97;45.66
60832;BME280;46665;51.558;-0.448;2023-04-07T13:55:30;101578.97;;;14.13;46.46
60832;BME280;46665;51.558;-0.448;2023-04-07T13:58:14;101577.84;;;14.19;45.24
60832;BME280;46665;51.558;-0.448;2023-04-07T14:00:58;101571.72;;;14.32;44.58
60832;BME280;46665;51.558;-0.448;2023-04-07T14:03:42;101567.09;;;14.28;46.24
60832;BME280;46665;51.558;-0.448;2023-04-07T14:06:26;101577.03;;;14.19;42.22
60832;BME280;46665;51.558;-0.448;2023-04-07T14:09:10;101563.56;;;14.22;44.63
60832;BME280;46665;51.558;-0.448;2023-04-07T14:11:54;101566.56;;;14.31;45.55
60832;BME280;46665;51.558;-0.448;2023-04-07T14:14:37;101566.81;;;14.29;44.06
60832;BME280;46665;51.558;-0.448;2023-04-07T14:17:21;101569.47;;;14.45;44.75
60832;BME280;46665;51.558;-0.448;2023-04-07T14:20:06;101560.31;;;14.65;46.67
60832;BME280;46665;51.558;-0.448;2023-04-07T14:22:50;101565.41;;;14.37;43.67
60832;BME280;46665;51.558;-0.448;2023-04-07T14:25:35;101567.50;;;14.50;44.08
60832;BME280;46665;51.558;-0.448;2023-04-07T14:28:19;101565.69;;;14.75;45.04
60832;BME280;46665;51.558;-0.448;2023-04-07T14:31:03;101565.81;;;14.94;47.45
60832;BME280;46665;51.558;-0.448;2023-04-07T14:33:48;101565.25;;;14.97;47.18
60832;BME280;46665;51.558;-0.448;2023-04-07T14:36:32;101558.81;;;15.12;46.20
60832;BME280;46665;51.558;-0.448;2023-04-07T14:39:17;101565.56;;;15.20;45.46
60832;BME280;46665;51.558;-0.448;2023-04-07T14:42:00;101567.78;;;15.42;46.52
60832;BME280;46665;51.558;-0.448;2023-04-07T14:44:45;101557.50;;;15.57;45.70
60832;BME280;46665;51.558;-0.448;2023-04-07T14:47:29;101559.25;;;15.67;44.99
60832;BME280;46665;51.558;-0.448;2023-04-07T14:50:13;101554.97;;;15.61;44.80
60832;BME280;46665;51.558;-0.448;2023-04-07T14:52:57;101557.63;;;15.18;44.54